createdAt,value
2023-05-19T00:02:25.980Z,14.90
2023-05-19T00:04:53.275Z,14.90
2023-05-19T00:07:25.589Z,14.91
2023-05-19T00:09:52.286Z,14.89
2023-05-19T00:12:19.014Z,14.88
2023-05-19T00:14:45.791Z,14.74
2023-05-19T00:17:12.522Z,14.78
2023-05-19T00:19:39.467Z,14.72
2023-05-19T00:22:06.204Z,14.67
2023-05-19T00:24:33.264Z,14.70
2023-05-19T00:26:59.823Z,14.73
2023-05-19T00:29:26.360Z,14.62
2023-05-19T00:31:52.905Z,14.51
2023-05-19T00:34:19.641Z,14.54
2023-05-19T00:36:46.153Z,14.46
2023-05-19T00:39:12.679Z,14.51
2023-05-19T00:41:39.332Z,14.50
2023-05-19T00:44:07.021Z,14.54
2023-05-19T00:46:34.037Z,14.49
2023-05-19T00:49:00.602Z,14.34
2023-05-19T00:51:29.578Z,14.47
2023-05-19T00:53:56.772Z,14.39
2023-05-19T00:56:23.462Z,14.46
2023-05-19T00:58:51.839Z,14.38
2023-05-19T01:01:21.827Z,14.41
2023-05-19T01:03:49.142Z,14.39
2023-05-19T01:06:15.835Z,14.30
2023-05-19T01:08:42.388Z,14.34
2023-05-19T01:11:08.970Z,14.34
2023-05-19T01:13:36.787Z,14.30
2023-05-19T01:16:40.328Z,14.23
2023-05-19T01:19:46.727Z,14.24
2023-05-19T01:22:27.623Z,14.19
2023-05-19T01:25:13.086Z,14.18
2023-05-19T01:28:10.329Z,14.13
2023-05-19T01:30:40.662Z,14.07
2023-05-19T01:33:10.622Z,13.82
2023-05-19T01:35:39.762Z,13.89
2023-05-19T01:38:09.828Z,13.96
2023-05-19T01:40:38.846Z,13.96
2023-05-19T01:43:07.835Z,13.96
2023-05-19T01:45:34.649Z,13.94
2023-05-19T01:48:03.757Z,13.95
2023-05-19T01:50:31.973Z,13.95
2023-05-19T01:52:59.424Z,13.91
2023-05-19T01:55:26.818Z,13.84
2023-05-19T01:58:11.789Z,13.95
2023-05-19T02:00:47.040Z,13.95
2023-05-19T02:03:48.112Z,13.94
2023-05-19T02:06:37.642Z,13.97
2023-05-19T02:09:13.715Z,13.91
2023-05-19T02:11:43.857Z,13.86
2023-05-19T02:14:50.145Z,13.96
2023-05-19T02:17:18.686Z,13.93
2023-05-19T02:19:45.245Z,13.92
2023-05-19T02:22:11.880Z,13.93
2023-05-19T02:24:39.450Z,13.80
2023-05-19T02:27:06.302Z,13.94
2023-05-19T02:29:32.913Z,13.89
2023-05-19T02:32:02.080Z,13.85
2023-05-19T02:34:28.769Z,13.92
2023-05-19T02:36:56.504Z,13.85
2023-05-19T02:39:23.128Z,13.87
2023-05-19T02:41:49.793Z,13.81
2023-05-19T02:44:16.323Z,13.70
2023-05-19T02:46:43.321Z,13.72
2023-05-19T02:49:09.937Z,13.80
2023-05-19T02:51:36.461Z,13.76
2023-05-19T02:54:03.039Z,13.77
2023-05-19T02:56:29.650Z,13.69
2023-05-19T02:58:56.398Z,13.73
2023-05-19T03:01:23.205Z,13.73
2023-05-19T03:03:49.992Z,13.74
2023-05-19T03:06:18.074Z,13.62
2023-05-19T03:08:45.000Z,13.73
2023-05-19T03:11:11.546Z,13.66
2023-05-19T03:13:38.082Z,13.67
2023-05-19T03:16:04.766Z,13.69
2023-05-19T03:18:31.748Z,13.54
2023-05-19T03:20:58.278Z,13.52
2023-05-19T03:23:24.896Z,13.65
2023-05-19T03:25:51.541Z,13.66
2023-05-19T03:28:18.077Z,13.63
2023-05-19T03:30:44.594Z,13.60
2023-05-19T03:33:11.736Z,13.59
2023-05-19T03:35:38.331Z,13.48
2023-05-19T03:38:04.864Z,13.52
2023-05-19T03:40:31.631Z,13.49
2023-05-19T03:42:58.482Z,13.34
2023-05-19T03:45:25.026Z,13.45
2023-05-19T03:47:51.675Z,13.45
2023-05-19T03:50:18.319Z,13.35
2023-05-19T03:52:46.473Z,13.42
2023-05-19T03:55:14.722Z,13.38
2023-05-19T03:57:41.733Z,13.36
2023-05-19T04:00:11.271Z,13.35
2023-05-19T04:02:38.271Z,13.24
2023-05-19T04:05:05.493Z,13.31
2023-05-19T04:07:32.085Z,13.28
2023-05-19T04:09:58.719Z,13.29
2023-05-19T04:12:25.302Z,13.24
2023-05-19T04:14:51.861Z,13.24
2023-05-19T04:17:18.495Z,13.21
2023-05-19T04:19:45.072Z,13.19
2023-05-19T04:22:11.614Z,13.02
2023-05-19T04:24:38.102Z,13.10
2023-05-19T04:27:04.884Z,13.11
2023-05-19T04:29:32.614Z,12.95
2023-05-19T04:31:59.202Z,13.10
2023-05-19T04:34:25.838Z,13.00
2023-05-19T04:36:53.514Z,12.91
2023-05-19T04:39:21.751Z,13.10
2023-05-19T04:41:48.317Z,13.06
2023-05-19T04:44:18.252Z,13.01
2023-05-19T04:46:45.351Z,13.08
2023-05-19T04:49:15.095Z,13.08
2023-05-19T04:51:42.361Z,12.98
2023-05-19T04:54:09.989Z,13.09
2023-05-19T04:56:36.837Z,13.10
2023-05-19T04:59:03.700Z,13.09
2023-05-19T05:01:31.353Z,13.11
2023-05-19T05:03:59.271Z,13.08
2023-05-19T05:06:26.517Z,13.11
2023-05-19T05:08:53.141Z,13.02
2023-05-19T05:11:20.041Z,13.11
2023-05-19T05:13:46.983Z,13.05
2023-05-19T05:16:14.866Z,13.13
2023-05-19T05:18:44.370Z,13.29
2023-05-19T05:21:12.293Z,13.32
2023-05-19T05:23:39.073Z,13.32
2023-05-19T05:26:18.665Z,13.37
2023-05-19T05:28:45.388Z,13.37
2023-05-19T05:31:12.108Z,13.43
2023-05-19T05:33:38.976Z,13.40
2023-05-19T05:36:05.796Z,13.50
2023-05-19T05:38:32.587Z,13.57
2023-05-19T05:40:59.332Z,13.55
2023-05-19T05:43:26.005Z,13.61
2023-05-19T05:45:52.507Z,13.66
2023-05-19T05:48:19.428Z,13.76
2023-05-19T05:50:46.501Z,13.82
2023-05-19T05:53:19.234Z,13.83
2023-05-19T05:55:49.823Z,13.86
2023-05-19T05:58:16.994Z,13.93
2023-05-19T06:00:43.791Z,13.96
2023-05-19T06:03:11.540Z,13.92
2023-05-19T06:05:38.687Z,13.97
2023-05-19T06:08:05.707Z,13.96
2023-05-19T06:10:32.633Z,14.01
2023-05-19T06:12:59.352Z,14.13
2023-05-19T06:15:26.153Z,14.16
2023-05-19T06:17:52.731Z,14.20
2023-05-19T06:20:19.972Z,14.18
2023-05-19T06:22:46.587Z,14.16
2023-05-19T06:25:13.874Z,14.17
2023-05-19T06:27:40.453Z,14.25
2023-05-19T06:30:08.754Z,14.34
2023-05-19T06:32:35.365Z,14.44
2023-05-19T06:35:02.025Z,14.42
2023-05-19T06:37:28.590Z,14.54
2023-05-19T06:39:55.160Z,14.60
2023-05-19T06:42:22.703Z,14.64
2023-05-19T06:44:51.237Z,14.69
2023-05-19T06:47:18.279Z,14.67
2023-05-19T06:49:45.816Z,14.75
2023-05-19T06:52:12.536Z,14.75
2023-05-19T06:54:39.181Z,14.93
2023-05-19T06:57:05.733Z,15.07
2023-05-19T06:59:32.309Z,15.21
2023-05-19T07:01:58.951Z,15.37
2023-05-19T07:04:25.638Z,15.63
2023-05-19T07:06:52.329Z,15.69
2023-05-19T07:09:18.965Z,15.69
2023-05-19T07:11:45.844Z,15.76
2023-05-19T07:14:12.419Z,15.76
2023-05-19T07:16:38.996Z,15.83
2023-05-19T07:19:05.709Z,15.88
2023-05-19T07:21:32.276Z,15.89
2023-05-19T07:23:58.891Z,15.83
2023-05-19T07:26:26.450Z,15.78
2023-05-19T07:28:53.249Z,15.92
2023-05-19T07:31:19.882Z,15.88
2023-05-19T07:33:46.435Z,16.00
2023-05-19T07:36:13.009Z,15.99
2023-05-19T07:38:39.761Z,15.99
2023-05-19T07:41:06.378Z,16.21
2023-05-19T07:43:33.057Z,16.32
2023-05-19T07:45:59.716Z,16.47
2023-05-19T07:48:26.476Z,16.62
2023-05-19T07:50:53.298Z,16.87
2023-05-19T07:53:20.522Z,17.04
2023-05-19T07:55:47.061Z,17.31
2023-05-19T07:58:13.937Z,17.36
2023-05-19T08:00:43.040Z,17.60
2023-05-19T08:03:10.322Z,17.67
2023-05-19T08:05:37.031Z,17.79
2023-05-19T08:08:04.312Z,17.84
2023-05-19T08:10:31.560Z,17.77
2023-05-19T08:12:58.387Z,17.85
2023-05-19T08:15:25.406Z,17.84
2023-05-19T08:17:52.012Z,17.88
2023-05-19T08:20:18.672Z,17.99
2023-05-19T08:22:45.249Z,17.88
2023-05-19T08:25:11.762Z,18.04
2023-05-19T08:27:38.383Z,18.05
2023-05-19T08:30:05.485Z,18.00
2023-05-19T08:32:32.064Z,18.01
2023-05-19T08:34:58.904Z,17.95
2023-05-19T08:37:25.592Z,17.89
2023-05-19T08:39:52.179Z,17.74
2023-05-19T08:42:18.751Z,17.74
2023-05-19T08:44:45.343Z,17.77
2023-05-19T08:47:13.896Z,17.71
2023-05-19T08:49:45.583Z,17.71
2023-05-19T08:52:35.558Z,17.77
2023-05-19T08:55:13.057Z,17.73
2023-05-19T08:57:40.830Z,17.66
2023-05-19T09:00:09.813Z,17.79
2023-05-19T09:02:46.555Z,17.72
2023-05-19T09:05:23.149Z,17.76
2023-05-19T09:07:49.908Z,17.91
2023-05-19T09:10:16.635Z,17.96
2023-05-19T09:12:45.971Z,18.00
2023-05-19T09:15:13.224Z,18.09
2023-05-19T09:17:40.080Z,18.20
2023-05-19T09:20:11.042Z,18.25
2023-05-19T09:22:47.612Z,18.35
2023-05-19T09:25:22.999Z,18.50
2023-05-19T09:27:49.739Z,18.69
2023-05-19T09:30:17.393Z,18.75
2023-05-19T09:32:45.043Z,18.92
2023-05-19T09:35:13.180Z,18.95
2023-05-19T09:37:41.549Z,19.11
2023-05-19T09:40:13.923Z,19.12
2023-05-19T09:42:41.867Z,19.08
2023-05-19T09:45:12.049Z,19.18
2023-05-19T09:47:42.144Z,19.23
2023-05-19T09:50:11.606Z,19.28
2023-05-19T09:52:39.700Z,19.50
2023-05-19T09:55:10.029Z,19.51
2023-05-19T09:57:37.574Z,19.40
2023-05-19T10:00:12.406Z,19.41
2023-05-19T10:02:42.682Z,19.57
2023-05-19T10:05:12.956Z,19.72
2023-05-19T10:07:40.855Z,19.59
2023-05-19T10:10:09.942Z,19.66
2023-05-19T10:12:39.211Z,19.73
2023-05-19T10:15:10.818Z,19.76
2023-05-19T10:17:42.489Z,19.96
2023-05-19T10:20:14.381Z,20.28
2023-05-19T10:22:43.225Z,20.49
2023-05-19T10:25:11.184Z,20.86
2023-05-19T10:27:45.263Z,21.32
2023-05-19T10:30:18.843Z,21.49
2023-05-19T10:32:48.696Z,21.66
2023-05-19T10:35:34.170Z,21.67
2023-05-19T10:38:21.318Z,21.63
2023-05-19T10:40:56.966Z,21.56
2023-05-19T10:43:45.918Z,21.70
2023-05-19T10:46:12.687Z,21.65
2023-05-19T10:48:44.483Z,21.65
2023-05-19T10:51:12.374Z,21.65
2023-05-19T10:53:50.048Z,22.18
2023-05-19T10:56:32.947Z,22.60
2023-05-19T10:58:59.892Z,23.07
2023-05-19T11:01:34.356Z,23.41
2023-05-19T11:04:15.995Z,23.42
2023-05-19T11:06:51.999Z,23.66
2023-05-19T11:09:34.222Z,23.92
2023-05-19T11:12:06.919Z,24.17
2023-05-19T11:14:34.883Z,24.01
2023-05-19T11:17:01.605Z,23.89
2023-05-19T11:19:34.392Z,23.55
2023-05-19T11:22:12.441Z,23.31
2023-05-19T11:24:44.486Z,23.32
2023-05-19T11:27:31.923Z,23.00
2023-05-19T11:29:59.719Z,22.83
2023-05-19T11:32:31.686Z,22.70
2023-05-19T11:34:58.407Z,22.72
2023-05-19T11:37:25.218Z,22.48
2023-05-19T11:39:55.076Z,22.42
2023-05-19T11:42:21.813Z,22.35
2023-05-19T11:44:49.387Z,22.19
2023-05-19T11:47:17.193Z,22.00
2023-05-19T11:50:05.206Z,22.02
2023-05-19T11:52:32.401Z,22.13
2023-05-19T11:55:02.183Z,22.19
2023-05-19T11:57:28.880Z,22.37
2023-05-19T11:59:58.098Z,22.86
2023-05-19T12:02:26.162Z,23.19
2023-05-19T12:04:54.138Z,23.34
2023-05-19T12:07:25.044Z,23.33
2023-05-19T12:09:52.967Z,23.60
2023-05-19T12:12:26.929Z,23.87
2023-05-19T12:14:57.204Z,24.00
2023-05-19T12:17:24.339Z,24.38
2023-05-19T12:19:51.311Z,24.63
2023-05-19T12:22:21.704Z,24.87
2023-05-19T12:24:49.328Z,25.03
2023-05-19T12:27:28.360Z,25.16
2023-05-19T12:29:57.210Z,25.23
2023-05-19T12:32:25.720Z,25.29
2023-05-19T12:34:53.724Z,25.54
2023-05-19T12:37:20.260Z,25.44
2023-05-19T12:39:49.197Z,25.02
2023-05-19T12:42:16.233Z,24.68
2023-05-19T12:44:46.910Z,24.75
2023-05-19T12:47:15.681Z,24.68
2023-05-19T12:49:56.174Z,24.61
2023-05-19T12:52:23.670Z,24.27
2023-05-19T12:54:52.448Z,24.15
2023-05-19T12:57:21.563Z,23.99
2023-05-19T12:59:49.354Z,23.86
2023-05-19T13:02:16.318Z,23.74
2023-05-19T13:04:43.109Z,23.66
2023-05-19T13:07:10.002Z,23.36
2023-05-19T13:09:39.129Z,23.36
2023-05-19T13:12:06.811Z,23.29
2023-05-19T13:14:33.483Z,23.13
2023-05-19T13:17:00.229Z,23.08
2023-05-19T13:19:27.933Z,23.04
2023-05-19T13:21:57.752Z,22.76
2023-05-19T13:24:24.695Z,22.71
2023-05-19T13:26:52.283Z,22.56
2023-05-19T13:29:19.935Z,22.36
2023-05-19T13:31:46.496Z,22.34
2023-05-19T13:34:14.470Z,22.30
2023-05-19T13:36:43.187Z,22.24
2023-05-19T13:39:09.822Z,22.04
2023-05-19T13:41:36.720Z,21.90
2023-05-19T13:44:03.367Z,21.94
2023-05-19T13:46:44.137Z,21.85
2023-05-19T13:49:11.765Z,21.69
2023-05-19T13:51:42.644Z,21.61
2023-05-19T13:54:09.560Z,21.41
2023-05-19T13:56:36.610Z,21.27
2023-05-19T13:59:04.058Z,21.32
2023-05-19T14:01:30.948Z,21.23
2023-05-19T14:03:57.743Z,21.09
2023-05-19T14:06:24.538Z,21.04
2023-05-19T14:08:51.416Z,21.04
2023-05-19T14:11:21.653Z,20.97
2023-05-19T14:13:53.056Z,21.01
2023-05-19T14:16:22.097Z,20.99
2023-05-19T14:18:49.726Z,21.14
2023-05-19T14:21:16.337Z,21.01
2023-05-19T14:23:43.032Z,21.07
2023-05-19T14:26:09.593Z,21.20
2023-05-19T14:28:36.486Z,21.25
2023-05-19T14:31:03.205Z,21.28
2023-05-19T14:33:32.874Z,21.30
2023-05-19T14:36:03.999Z,21.36
2023-05-19T14:38:30.789Z,21.51
2023-05-19T14:40:57.475Z,21.66
2023-05-19T14:43:24.291Z,21.57
2023-05-19T14:45:50.947Z,21.52
2023-05-19T14:48:18.066Z,21.18
2023-05-19T14:50:46.315Z,21.23
2023-05-19T14:53:12.857Z,21.23
2023-05-19T14:55:39.484Z,21.21
2023-05-19T14:58:13.003Z,21.13
2023-05-19T15:00:53.175Z,21.12
2023-05-19T15:03:20.141Z,21.00
2023-05-19T15:05:46.843Z,20.97
2023-05-19T15:08:13.458Z,20.93
2023-05-19T15:10:40.182Z,20.86
2023-05-19T15:13:06.728Z,20.82
2023-05-19T15:15:33.419Z,20.97
2023-05-19T15:18:00.059Z,21.12
2023-05-19T15:20:29.376Z,21.12
2023-05-19T15:22:56.454Z,21.16
2023-05-19T15:25:23.038Z,21.19
2023-05-19T15:27:49.937Z,21.06
2023-05-19T15:30:16.676Z,21.25
2023-05-19T15:32:43.338Z,21.40
2023-05-19T15:35:10.100Z,21.53
2023-05-19T15:37:36.650Z,21.92
2023-05-19T15:40:04.481Z,22.38
2023-05-19T15:42:31.127Z,22.96
2023-05-19T15:44:57.752Z,23.43
2023-05-19T15:47:24.481Z,23.82
2023-05-19T15:49:51.179Z,24.14
2023-05-19T15:52:17.813Z,24.49
2023-05-19T15:54:44.596Z,24.98
2023-05-19T15:57:11.129Z,24.88
2023-05-19T15:59:37.809Z,24.55
2023-05-19T16:02:04.579Z,24.07
2023-05-19T16:04:31.242Z,23.75
2023-05-19T16:06:57.956Z,23.50
2023-05-19T16:09:24.598Z,23.16
2023-05-19T16:11:51.454Z,22.96
2023-05-19T16:14:17.999Z,22.77
2023-05-19T16:16:44.954Z,22.67
2023-05-19T16:19:11.670Z,22.57
2023-05-19T16:21:38.313Z,22.31
2023-05-19T16:24:05.149Z,22.31
2023-05-19T16:26:31.877Z,22.15
2023-05-19T16:28:58.490Z,21.97
2023-05-19T16:31:25.382Z,21.76
2023-05-19T16:33:52.069Z,21.64
2023-05-19T16:36:18.727Z,21.51
2023-05-19T16:38:45.232Z,21.49
2023-05-19T16:41:12.328Z,21.49
2023-05-19T16:43:39.473Z,21.13
2023-05-19T16:46:06.428Z,21.32
2023-05-19T16:48:33.159Z,21.12
2023-05-19T16:50:59.813Z,21.07
2023-05-19T16:53:26.442Z,20.92
2023-05-19T16:55:53.150Z,20.77
2023-05-19T16:58:19.826Z,20.86
2023-05-19T17:00:46.463Z,20.83
2023-05-19T17:03:13.272Z,20.89
2023-05-19T17:05:42.029Z,20.75
2023-05-19T17:08:08.935Z,20.69
2023-05-19T17:10:36.105Z,20.48
2023-05-19T17:13:02.927Z,20.39
2023-05-19T17:15:30.277Z,20.40
2023-05-19T17:17:56.830Z,20.28
2023-05-19T17:20:23.498Z,20.30
2023-05-19T17:22:50.140Z,20.15
2023-05-19T17:25:16.976Z,20.14
2023-05-19T17:27:43.877Z,20.01
2023-05-19T17:30:11.087Z,19.98
2023-05-19T17:32:39.531Z,19.91
2023-05-19T17:35:06.916Z,19.84
2023-05-19T17:37:33.585Z,19.80
2023-05-19T17:40:00.184Z,19.67
2023-05-19T17:42:26.775Z,19.72
2023-05-19T17:44:53.360Z,19.69
2023-05-19T17:47:20.050Z,19.60
2023-05-19T17:49:46.713Z,19.48
2023-05-19T17:52:13.796Z,19.64
2023-05-19T17:54:40.568Z,19.55
2023-05-19T17:57:12.488Z,19.45
2023-05-19T17:59:39.548Z,19.38
2023-05-19T18:02:07.182Z,19.30
2023-05-19T18:04:34.387Z,19.22
2023-05-19T18:07:03.687Z,19.20
2023-05-19T18:09:30.558Z,19.18
2023-05-19T18:11:57.231Z,18.99
2023-05-19T18:14:23.892Z,18.94
2023-05-19T18:16:50.622Z,18.94
2023-05-19T18:19:17.226Z,18.86
2023-05-19T18:21:43.807Z,18.80
2023-05-19T18:24:10.754Z,18.71
2023-05-19T18:26:41.981Z,18.67
2023-05-19T18:29:11.650Z,18.56
2023-05-19T18:31:38.506Z,18.51
2023-05-19T18:34:05.490Z,18.46
2023-05-19T18:36:32.439Z,18.55
2023-05-19T18:38:59.440Z,18.46
2023-05-19T18:41:26.169Z,18.49
2023-05-19T18:43:52.825Z,18.31
2023-05-19T18:46:20.001Z,18.21
2023-05-19T18:48:46.929Z,18.31
2023-05-19T18:51:15.826Z,18.25
2023-05-19T18:53:42.352Z,18.17
2023-05-19T18:56:11.209Z,18.11
2023-05-19T18:58:37.739Z,18.11
2023-05-19T19:01:05.222Z,18.01
2023-05-19T19:03:32.038Z,17.85
2023-05-19T19:05:59.538Z,17.96
2023-05-19T19:08:26.220Z,17.85
2023-05-19T19:10:53.874Z,17.89
2023-05-19T19:13:21.039Z,17.92
2023-05-19T19:15:47.710Z,17.93
2023-05-19T19:18:14.299Z,17.91
2023-05-19T19:20:40.997Z,17.85
2023-05-19T19:23:07.598Z,17.82
2023-05-19T19:25:34.251Z,17.80
2023-05-19T19:28:01.640Z,17.85
2023-05-19T19:30:29.371Z,17.68
2023-05-19T19:32:57.014Z,17.66
2023-05-19T19:35:23.653Z,17.51
2023-05-19T19:37:51.713Z,17.53
2023-05-19T19:40:18.392Z,17.40
2023-05-19T19:42:45.018Z,17.26
2023-05-19T19:45:14.761Z,17.29
2023-05-19T19:47:42.260Z,17.14
2023-05-19T19:50:09.698Z,17.28
2023-05-19T19:52:37.061Z,17.15
2023-05-19T19:55:03.861Z,17.17
2023-05-19T19:57:31.681Z,17.10
2023-05-19T20:00:04.619Z,17.09
2023-05-19T20:02:31.359Z,17.05
2023-05-19T20:04:58.032Z,16.93
2023-05-19T20:07:24.655Z,16.84
2023-05-19T20:09:52.836Z,16.80
2023-05-19T20:12:19.363Z,16.93
2023-05-19T20:14:46.602Z,16.87
2023-05-19T20:17:13.339Z,16.87
2023-05-19T20:19:40.717Z,16.71
2023-05-19T20:22:07.249Z,16.92
2023-05-19T20:24:33.758Z,16.82
2023-05-19T20:27:00.311Z,16.84
2023-05-19T20:29:27.363Z,16.69
2023-05-19T20:31:55.563Z,16.68
2023-05-19T20:34:23.744Z,16.73
2023-05-19T20:36:50.356Z,16.67
2023-05-19T20:39:17.112Z,16.59
2023-05-19T20:41:43.704Z,16.50
2023-05-19T20:44:10.647Z,16.54
2023-05-19T20:46:37.163Z,16.18
2023-05-19T20:49:03.668Z,16.41
2023-05-19T20:51:30.303Z,16.38
2023-05-19T20:53:56.968Z,16.34
2023-05-19T20:56:23.483Z,16.20
2023-05-19T20:58:50.404Z,16.19
2023-05-19T21:01:17.272Z,16.18
2023-05-19T21:03:43.857Z,16.18
2023-05-19T21:06:10.533Z,16.01
2023-05-19T21:08:37.504Z,16.02
2023-05-19T21:11:04.221Z,16.07
2023-05-19T21:13:30.801Z,16.03
2023-05-19T21:15:57.454Z,15.96
2023-05-19T21:18:24.171Z,15.89
2023-05-19T21:20:50.671Z,15.94
2023-05-19T21:23:17.261Z,15.96
2023-05-19T21:25:45.417Z,15.78
2023-05-19T21:28:12.595Z,15.93
2023-05-19T21:30:39.195Z,15.85
2023-05-19T21:33:05.976Z,15.84
2023-05-19T21:35:32.866Z,15.83
2023-05-19T21:38:08.978Z,15.73
2023-05-19T21:40:42.508Z,15.58
2023-05-19T21:43:09.042Z,15.47
2023-05-19T21:45:35.633Z,15.35
2023-05-19T21:48:02.494Z,15.49
2023-05-19T21:50:29.194Z,15.58
2023-05-19T21:52:55.780Z,15.53
2023-05-19T21:55:23.083Z,15.30
2023-05-19T21:57:49.616Z,15.28
2023-05-19T22:00:16.413Z,15.24
2023-05-19T22:02:43.245Z,15.21
2023-05-19T22:05:10.148Z,15.02
2023-05-19T22:07:38.094Z,14.93
2023-05-19T22:10:04.995Z,14.84
2023-05-19T22:12:32.832Z,14.84
2023-05-19T22:15:00.578Z,14.59
2023-05-19T22:17:27.256Z,14.45
2023-05-19T22:19:53.846Z,14.38
2023-05-19T22:22:20.544Z,14.45
2023-05-19T22:24:47.074Z,14.37
2023-05-19T22:27:13.594Z,14.40
2023-05-19T22:29:40.201Z,14.30
2023-05-19T22:32:09.209Z,14.02
2023-05-19T22:34:35.922Z,14.18
2023-05-19T22:37:02.496Z,14.08
2023-05-19T22:39:28.997Z,14.08
2023-05-19T22:41:55.527Z,14.00
2023-05-19T22:44:22.065Z,13.88
2023-05-19T22:46:48.720Z,13.88
2023-05-19T22:49:15.490Z,13.83
2023-05-19T22:51:42.060Z,13.75
2023-05-19T22:54:09.849Z,13.75
2023-05-19T22:56:36.381Z,13.61
2023-05-19T22:59:03.036Z,13.62
2023-05-19T23:01:30.892Z,13.54
2023-05-19T23:03:57.546Z,13.50
2023-05-19T23:06:24.205Z,13.43
2023-05-19T23:08:59.390Z,13.35
2023-05-19T23:11:26.242Z,13.30
2023-05-19T23:13:52.827Z,13.24
2023-05-19T23:16:19.400Z,13.09
2023-05-19T23:18:46.135Z,13.14
2023-05-19T23:21:13.188Z,13.11
2023-05-19T23:23:39.832Z,12.97
2023-05-19T23:26:06.468Z,13.04
2023-05-19T23:28:32.951Z,12.91
2023-05-19T23:30:59.502Z,12.86
2023-05-19T23:33:26.047Z,12.71
2023-05-19T23:35:52.840Z,12.79
2023-05-19T23:38:19.410Z,12.78
2023-05-19T23:40:46.004Z,12.73
2023-05-19T23:43:12.510Z,12.66
2023-05-19T23:45:39.128Z,12.56
2023-05-19T23:48:06.095Z,12.52
2023-05-19T23:50:32.734Z,12.58
2023-05-19T23:52:59.690Z,12.38
2023-05-19T23:55:26.230Z,12.51
2023-05-19T23:57:52.758Z,12.36
